createdAt,value
2018-11-21T00:01:08.280Z,12.43
2018-11-21T00:03:48.059Z,14.50
2018-11-21T00:06:27.577Z,14.73
2018-11-21T00:09:07.294Z,14.27
2018-11-21T00:11:46.963Z,11.33
2018-11-21T00:14:26.419Z,14.87
2018-11-21T00:17:06.434Z,12.77
2018-11-21T00:19:45.774Z,14.43
2018-11-21T00:22:25.848Z,13.17
2018-11-21T00:25:05.382Z,13.90
2018-11-21T00:28:05.374Z,12.30
2018-11-21T00:30:45.128Z,12.13
2018-11-21T00:33:24.711Z,12.13
2018-11-21T00:36:11.117Z,17.00
2018-11-21T00:38:51.204Z,14.17
2018-11-21T00:41:30.955Z,13.47
2018-11-21T00:44:10.655Z,15.53
2018-11-21T00:46:50.444Z,14.37
2018-11-21T00:49:29.874Z,14.23
2018-11-21T00:52:10.470Z,12.30
2018-11-21T00:54:51.010Z,13.47
2018-11-21T00:57:30.733Z,20.30
2018-11-21T01:03:09.583Z,13.40
2018-11-21T01:05:49.710Z,13.63
2018-11-21T01:08:29.297Z,20.70
2018-11-21T01:11:09.129Z,16.10
2018-11-21T01:13:48.714Z,12.90
2018-11-21T01:16:28.464Z,12.77
2018-11-21T01:19:08.691Z,12.60
2018-11-21T01:21:48.862Z,12.60
2018-11-21T01:24:29.211Z,11.37
2018-11-21T01:27:08.859Z,11.80
2018-11-21T01:29:48.319Z,15.23
2018-11-21T01:32:28.050Z,13.70
2018-11-21T01:35:07.988Z,16.17
2018-11-21T01:37:47.332Z,12.60
2018-11-21T01:40:27.015Z,13.00
2018-11-21T01:43:06.838Z,12.90
2018-11-21T01:45:49.944Z,12.10
2018-11-21T01:48:30.005Z,13.80
2018-11-21T01:51:09.649Z,13.93
2018-11-21T01:53:49.351Z,11.67
2018-11-21T01:56:29.250Z,14.53
2018-11-21T01:59:08.733Z,13.10
2018-11-21T02:01:48.675Z,14.53
2018-11-21T02:04:28.296Z,13.43
2018-11-21T02:07:07.992Z,10.90
2018-11-21T02:09:48.026Z,12.40
2018-11-21T02:12:28.378Z,11.20
2018-11-21T02:15:07.945Z,15.80
2018-11-21T02:17:47.384Z,12.80
2018-11-21T02:20:26.966Z,13.27
2018-11-21T02:23:06.377Z,14.57
2018-11-21T02:25:46.418Z,11.97
2018-11-21T02:28:26.197Z,17.40
2018-11-21T02:31:05.531Z,20.00
2018-11-21T02:33:45.101Z,15.23
2018-11-21T02:36:25.361Z,15.07
2018-11-21T02:39:05.062Z,15.90
2018-11-21T02:41:44.792Z,13.57
2018-11-21T02:44:25.185Z,13.20
2018-11-21T02:47:05.132Z,17.80
2018-11-21T02:49:45.431Z,18.33
2018-11-21T02:52:25.237Z,15.40
2018-11-21T02:55:05.396Z,19.80
2018-11-21T02:57:45.173Z,17.40
2018-11-21T03:00:24.612Z,17.23
2018-11-21T03:03:04.416Z,20.80
2018-11-21T03:05:44.048Z,17.00
2018-11-21T03:08:23.725Z,18.17
2018-11-21T03:11:03.591Z,16.17
2018-11-21T03:13:43.613Z,18.53
2018-11-21T03:16:23.424Z,17.80
2018-11-21T03:19:03.703Z,21.80
2018-11-21T03:21:43.158Z,17.50
2018-11-21T03:24:23.204Z,19.53
2018-11-21T03:27:02.872Z,18.27
2018-11-21T03:29:42.833Z,21.83
2018-11-21T03:32:22.236Z,17.60
2018-11-21T03:35:01.797Z,21.67
2018-11-21T03:37:41.315Z,20.50
2018-11-21T03:40:21.067Z,21.53
2018-11-21T03:43:00.760Z,17.77
2018-11-21T03:45:40.570Z,20.83
2018-11-21T03:48:20.187Z,23.17
2018-11-21T03:51:00.429Z,21.30
2018-11-21T03:53:40.230Z,20.27
2018-11-21T03:59:44.830Z,20.27
2018-11-21T04:02:24.455Z,20.93
2018-11-21T04:05:03.998Z,21.30
2018-11-21T04:07:43.963Z,19.90
2018-11-21T04:10:23.689Z,21.80
2018-11-21T04:13:03.134Z,17.60
2018-11-21T04:15:43.258Z,20.57
2018-11-21T04:18:22.815Z,22.80
2018-11-21T04:23:42.392Z,22.33
2018-11-21T04:26:22.067Z,17.77
2018-11-21T04:29:01.896Z,19.23
2018-11-21T04:31:41.638Z,18.53
2018-11-21T04:34:21.325Z,18.13
2018-11-21T04:37:01.007Z,17.47
2018-11-21T04:39:40.907Z,20.23
2018-11-21T04:42:20.605Z,21.00
2018-11-21T04:45:00.216Z,21.97
2018-11-21T04:47:40.034Z,21.30
2018-11-21T04:50:19.496Z,16.63
2018-11-21T04:52:59.220Z,20.00
2018-11-21T04:58:46.451Z,30.83
2018-11-21T05:01:26.107Z,24.93
2018-11-21T05:04:06.323Z,22.23
2018-11-21T05:06:45.953Z,22.60
2018-11-21T05:09:25.969Z,19.60
2018-11-21T05:12:05.829Z,24.47
2018-11-21T05:14:45.427Z,23.30
2018-11-21T05:17:25.483Z,24.03
2018-11-21T05:20:05.254Z,21.43
2018-11-21T05:22:45.091Z,18.07
2018-11-21T05:25:25.054Z,19.73
2018-11-21T05:28:05.158Z,21.30
2018-11-21T05:30:44.847Z,21.63
2018-11-21T05:33:26.246Z,24.70
2018-11-21T05:36:06.813Z,22.37
2018-11-21T05:38:46.559Z,28.27
2018-11-21T05:41:27.246Z,40.90
2018-11-21T05:44:06.670Z,26.23
2018-11-21T05:46:46.448Z,26.63
2018-11-21T05:49:27.337Z,23.53
2018-11-21T05:52:07.318Z,21.90
2018-11-21T05:54:47.368Z,18.17
2018-11-21T05:57:26.682Z,19.10
2018-11-21T06:00:10.483Z,19.50
2018-11-21T06:02:50.225Z,22.63
2018-11-21T06:05:30.522Z,21.30
2018-11-21T06:08:10.611Z,21.60
2018-11-21T06:10:51.008Z,20.93
2018-11-21T06:13:30.500Z,24.40
2018-11-21T06:16:10.481Z,23.50
2018-11-21T06:18:50.272Z,21.07
2018-11-21T06:21:29.876Z,31.60
2018-11-21T06:24:09.648Z,22.90
2018-11-21T06:26:49.389Z,27.60
2018-11-21T06:29:29.168Z,27.00
2018-11-21T06:32:08.916Z,26.50
2018-11-21T06:34:49.001Z,21.67
2018-11-21T06:37:29.149Z,23.10
2018-11-21T06:40:09.157Z,24.70
2018-11-21T06:42:52.769Z,22.10
2018-11-21T06:45:32.639Z,22.00
2018-11-21T06:48:12.479Z,23.03
2018-11-21T06:50:52.665Z,21.83
2018-11-21T06:53:32.576Z,18.50
2018-11-21T06:56:12.922Z,22.60
2018-11-21T06:58:55.186Z,23.73
2018-11-21T07:01:32.929Z,26.63
2018-11-21T07:04:12.468Z,22.70
2018-11-21T07:06:52.065Z,21.67
2018-11-21T07:09:32.268Z,23.23
2018-11-21T07:12:12.183Z,19.60
2018-11-21T07:14:52.098Z,21.67
2018-11-21T07:17:31.913Z,20.57
2018-11-21T07:20:12.583Z,48.10
2018-11-21T07:22:52.323Z,31.53
2018-11-21T07:25:32.129Z,22.87
2018-11-21T07:28:13.074Z,27.73
2018-11-21T07:30:51.601Z,21.57
2018-11-21T07:33:31.406Z,21.80
2018-11-21T07:36:11.196Z,25.13
2018-11-21T07:38:51.120Z,23.50
2018-11-21T07:41:31.700Z,21.73
2018-11-21T07:44:11.739Z,22.70
2018-11-21T07:46:51.188Z,19.30
2018-11-21T07:49:30.818Z,20.90
2018-11-21T07:52:10.468Z,20.07
2018-11-21T07:54:50.070Z,23.63
2018-11-21T07:57:33.788Z,21.40
2018-11-21T08:00:13.604Z,25.27
2018-11-21T08:02:53.299Z,22.17
2018-11-21T08:05:34.022Z,21.73
2018-11-21T08:08:26.613Z,22.90
2018-11-21T08:11:18.568Z,19.90
2018-11-21T08:14:20.685Z,21.17
2018-11-21T08:17:21.039Z,28.63
2018-11-21T08:20:20.536Z,42.73
2018-11-21T08:23:19.505Z,25.23
2018-11-21T08:26:07.818Z,23.93
2018-11-21T08:28:48.113Z,23.47
2018-11-21T08:31:28.007Z,30.00
2018-11-21T08:34:08.357Z,23.10
2018-11-21T08:36:48.436Z,23.00
2018-11-21T08:39:28.275Z,24.30
2018-11-21T08:42:08.309Z,22.73
2018-11-21T08:44:47.783Z,23.10
2018-11-21T08:47:27.622Z,24.37
2018-11-21T08:50:07.555Z,21.97
2018-11-21T08:52:46.986Z,21.03
2018-11-21T08:55:26.629Z,19.70
2018-11-21T08:58:06.193Z,20.23
2018-11-21T09:00:50.121Z,20.80
2018-11-21T09:03:30.453Z,18.20
2018-11-21T09:06:10.986Z,20.30
2018-11-21T09:08:50.365Z,19.80
2018-11-21T09:11:30.840Z,21.43
2018-11-21T09:14:10.732Z,22.00
2018-11-21T09:16:50.657Z,20.63
2018-11-21T09:19:30.036Z,21.00
2018-11-21T09:22:10.641Z,22.67
2018-11-21T09:24:50.695Z,19.53
2018-11-21T09:27:31.138Z,17.93
2018-11-21T09:30:12.600Z,21.07
2018-11-21T09:32:53.837Z,21.73
2018-11-21T09:35:33.267Z,20.33
2018-11-21T09:38:13.167Z,20.40
2018-11-21T09:40:52.479Z,22.20
2018-11-21T09:43:32.240Z,20.20
2018-11-21T09:46:17.043Z,23.80
2018-11-21T09:48:52.309Z,56.00
2018-11-21T09:51:31.977Z,314.87
2018-11-21T09:54:11.733Z,186.03
2018-11-21T09:56:51.116Z,119.33
2018-11-21T09:59:30.764Z,184.33
2018-11-21T10:02:10.315Z,106.00
2018-11-21T10:04:50.026Z,56.03
2018-11-21T10:07:29.606Z,39.00
2018-11-21T10:10:09.211Z,36.00
2018-11-21T10:12:49.095Z,25.60
2018-11-21T10:15:28.510Z,25.90
2018-11-21T10:18:08.411Z,21.03
2018-11-21T10:20:47.989Z,22.10
2018-11-21T10:23:27.542Z,19.70
2018-11-21T10:26:07.603Z,22.13
2018-11-21T10:28:47.818Z,22.97
2018-11-21T10:31:27.975Z,18.40
2018-11-21T10:34:07.816Z,21.90
2018-11-21T10:36:47.182Z,22.67
2018-11-21T10:39:27.842Z,21.43
2018-11-21T10:42:07.348Z,19.00
2018-11-21T10:44:47.324Z,20.23
2018-11-21T10:47:27.142Z,19.50
2018-11-21T10:50:06.945Z,18.10
2018-11-21T10:52:46.807Z,61.20
2018-11-21T10:55:26.439Z,70.10
2018-11-21T10:58:06.126Z,42.07
2018-11-21T11:01:05.288Z,31.10
2018-11-21T11:03:50.197Z,24.40
2018-11-21T11:06:56.103Z,23.03
2018-11-21T11:09:55.749Z,21.53
2018-11-21T11:12:55.374Z,20.97
2018-11-21T11:15:53.972Z,20.67
2018-11-21T11:18:58.829Z,21.57
2018-11-21T11:22:03.754Z,20.07
2018-11-21T11:25:03.411Z,16.13
2018-11-21T11:28:03.433Z,20.20
2018-11-21T11:31:03.254Z,16.73
2018-11-21T11:34:03.274Z,17.37
2018-11-21T11:37:02.877Z,19.87
2018-11-21T11:40:01.972Z,17.10
2018-11-21T11:43:01.875Z,21.30
2018-11-21T11:46:01.649Z,19.33
2018-11-21T11:49:01.203Z,26.33
2018-11-21T11:52:00.461Z,18.30
2018-11-21T11:55:03.111Z,16.93
2018-11-21T11:58:02.897Z,18.90
2018-11-21T12:01:02.448Z,19.93
2018-11-21T12:04:05.389Z,14.80
2018-11-21T12:07:08.324Z,16.77
2018-11-21T12:10:07.280Z,18.17
2018-11-21T12:13:06.505Z,18.47
2018-11-21T12:16:05.702Z,16.13
2018-11-21T12:19:04.660Z,17.57
2018-11-21T12:22:07.181Z,14.23
2018-11-21T12:25:09.873Z,16.83
2018-11-21T12:28:09.760Z,14.63
2018-11-21T12:31:09.190Z,15.00
2018-11-21T12:34:08.834Z,15.63
2018-11-21T12:37:08.476Z,19.13
2018-11-21T12:39:59.649Z,16.27
2018-11-21T12:42:46.729Z,15.30
2018-11-21T12:45:45.510Z,21.13
2018-11-21T12:48:41.335Z,13.87
2018-11-21T12:51:47.645Z,16.93
2018-11-21T12:54:52.896Z,16.97
2018-11-21T12:57:52.534Z,15.57
2018-11-21T13:00:59.989Z,16.13
2018-11-21T13:04:00.105Z,19.43
2018-11-21T13:06:59.399Z,16.00
2018-11-21T13:09:58.736Z,21.00
2018-11-21T13:12:58.353Z,17.30
2018-11-21T13:15:58.013Z,20.93
2018-11-21T13:18:58.033Z,18.53
2018-11-21T13:21:57.690Z,20.43
2018-11-21T13:24:57.128Z,23.23
2018-11-21T13:27:44.465Z,24.03
2018-11-21T13:30:49.843Z,19.73
2018-11-21T13:33:49.846Z,20.13
2018-11-21T13:36:49.619Z,21.33
2018-11-21T13:39:49.219Z,19.40
2018-11-21T13:42:49.131Z,20.30
2018-11-21T13:45:49.024Z,20.60
2018-11-21T13:48:48.484Z,20.77
2018-11-21T13:51:36.288Z,18.17
2018-11-21T13:54:36.110Z,28.73
2018-11-21T13:57:16.670Z,41.10
2018-11-21T13:59:57.111Z,31.20
2018-11-21T14:02:36.789Z,28.30
2018-11-21T14:05:16.520Z,21.00
2018-11-21T14:07:56.460Z,22.77
2018-11-21T14:10:36.074Z,18.23
2018-11-21T14:13:15.881Z,20.97
2018-11-21T14:15:56.050Z,18.83
2018-11-21T14:18:35.935Z,18.57
2018-11-21T14:21:15.269Z,18.83
2018-11-21T14:23:55.151Z,20.00
2018-11-21T14:26:34.684Z,19.07
2018-11-21T14:29:14.806Z,19.50
2018-11-21T14:31:54.799Z,18.50
2018-11-21T14:34:35.113Z,20.60
2018-11-21T14:37:15.002Z,17.57
2018-11-21T14:39:54.451Z,20.40
2018-11-21T14:42:34.458Z,20.27
2018-11-21T14:45:16.163Z,20.73
2018-11-21T14:47:56.482Z,17.83
2018-11-21T14:50:39.226Z,25.93
2018-11-21T14:53:16.813Z,14.73
2018-11-21T14:55:56.883Z,18.30
2018-11-21T14:58:36.714Z,17.60
2018-11-21T15:01:16.630Z,17.30
2018-11-21T15:03:56.730Z,18.37
2018-11-21T15:06:37.147Z,20.63
2018-11-21T15:09:16.665Z,20.50
2018-11-21T15:11:56.419Z,18.60
2018-11-21T15:14:36.551Z,20.27
2018-11-21T15:17:15.892Z,20.77
2018-11-21T15:19:55.557Z,20.90
2018-11-21T15:22:35.868Z,27.67
2018-11-21T15:25:16.705Z,24.80
2018-11-21T15:27:56.427Z,25.50
2018-11-21T15:30:36.112Z,19.97
2018-11-21T15:33:15.910Z,18.97
2018-11-21T15:35:55.976Z,20.40
2018-11-21T15:38:35.755Z,19.57
2018-11-21T15:41:15.515Z,17.67
2018-11-21T15:43:55.123Z,20.07
2018-11-21T15:46:36.643Z,20.50
2018-11-21T15:49:16.815Z,16.30
2018-11-21T15:52:01.260Z,21.70
2018-11-21T15:54:36.268Z,17.93
2018-11-21T15:57:16.245Z,18.67
2018-11-21T15:59:56.078Z,19.53
2018-11-21T16:02:35.846Z,20.20
2018-11-21T16:05:16.417Z,24.10
2018-11-21T16:07:55.750Z,20.97
2018-11-21T16:10:37.249Z,18.07
2018-11-21T16:13:17.601Z,20.47
2018-11-21T16:15:57.398Z,18.57
2018-11-21T16:18:36.891Z,20.00
2018-11-21T16:21:16.644Z,29.40
2018-11-21T16:23:56.436Z,30.70
2018-11-21T16:26:36.390Z,29.00
2018-11-21T16:29:14.626Z,29.93
2018-11-21T16:32:01.251Z,27.50
2018-11-21T16:34:40.813Z,22.10
2018-11-21T16:37:20.550Z,22.90
2018-11-21T16:40:00.696Z,22.27
2018-11-21T16:42:41.078Z,24.10
2018-11-21T16:45:22.772Z,23.83
2018-11-21T16:48:02.305Z,31.33
2018-11-21T16:50:41.887Z,24.50
2018-11-21T16:53:21.814Z,25.23
2018-11-21T16:56:01.780Z,24.07
2018-11-21T16:58:41.844Z,21.33
2018-11-21T17:01:21.669Z,26.43
2018-11-21T17:04:01.151Z,22.13
2018-11-21T17:06:41.625Z,21.67
2018-11-21T17:09:21.563Z,26.83
2018-11-21T17:12:02.495Z,22.67
2018-11-21T17:14:42.492Z,30.30
2018-11-21T17:17:22.314Z,23.77
2018-11-21T17:20:02.552Z,24.10
2018-11-21T17:22:42.782Z,25.13
2018-11-21T17:25:24.380Z,28.07
2018-11-21T17:28:04.517Z,22.30
2018-11-21T17:30:44.331Z,24.57
2018-11-21T17:33:24.146Z,22.50
2018-11-21T17:36:04.685Z,26.37
2018-11-21T17:38:45.076Z,21.10
2018-11-21T17:41:24.638Z,22.37
2018-11-21T17:44:08.133Z,25.70
2018-11-21T17:46:47.777Z,22.67
2018-11-21T17:49:27.825Z,26.60
2018-11-21T17:52:07.824Z,26.80
2018-11-21T17:54:47.340Z,22.97
2018-11-21T17:57:28.084Z,22.43
2018-11-21T18:00:07.418Z,25.20
2018-11-21T18:02:50.982Z,22.37
2018-11-21T18:05:32.921Z,23.27
2018-11-21T18:08:13.215Z,31.40
2018-11-21T18:10:53.318Z,28.47
2018-11-21T18:16:22.416Z,26.63
2018-11-21T18:19:02.432Z,23.70
2018-11-21T18:21:42.675Z,24.07
2018-11-21T18:24:26.451Z,23.20
2018-11-21T18:27:06.532Z,28.30
2018-11-21T18:29:46.259Z,27.00
2018-11-21T18:32:26.104Z,21.70
2018-11-21T18:35:05.994Z,27.67
2018-11-21T18:37:46.609Z,23.87
2018-11-21T18:40:27.875Z,26.60
2018-11-21T18:43:07.785Z,34.63
2018-11-21T18:45:49.149Z,23.33
2018-11-21T18:48:28.991Z,25.93
2018-11-21T18:51:08.665Z,25.50
2018-11-21T18:53:54.776Z,25.90
2018-11-21T18:56:29.664Z,25.17
2018-11-21T18:59:11.183Z,22.87
2018-11-21T19:01:51.096Z,24.63
2018-11-21T19:04:30.842Z,25.63
2018-11-21T19:07:11.007Z,35.73
2018-11-21T19:09:51.458Z,31.50
2018-11-21T19:12:31.730Z,28.37
2018-11-21T19:15:13.543Z,25.03
2018-11-21T19:17:54.142Z,22.80
2018-11-21T19:20:37.985Z,31.80
2018-11-21T19:23:18.515Z,22.97
2018-11-21T19:25:58.680Z,31.33
2018-11-21T19:28:38.641Z,26.53
2018-11-21T19:31:18.543Z,28.97
2018-11-21T19:33:58.379Z,27.53
2018-11-21T19:36:38.822Z,24.30
2018-11-21T19:39:19.196Z,23.77
2018-11-21T19:41:59.782Z,22.83
2018-11-21T19:44:40.615Z,23.77
2018-11-21T19:47:21.249Z,22.47
2018-11-21T19:50:06.273Z,23.57
2018-11-21T19:52:47.466Z,27.10
2018-11-21T19:55:29.247Z,19.33
2018-11-21T19:58:09.588Z,22.00
2018-11-21T20:00:49.843Z,22.30
2018-11-21T20:03:30.295Z,20.13
2018-11-21T20:06:08.871Z,27.47
2018-11-21T20:08:48.943Z,24.47
2018-11-21T20:11:16.475Z,21.60
2018-11-21T20:14:03.654Z,25.97
2018-11-21T20:16:43.672Z,24.67
2018-11-21T20:19:23.914Z,23.03
2018-11-21T20:21:51.866Z,21.53
2018-11-21T20:24:19.369Z,23.17
2018-11-21T20:26:46.609Z,22.40
2018-11-21T20:29:15.303Z,21.63
2018-11-21T20:31:43.546Z,21.87
2018-11-21T20:34:23.490Z,18.13
2018-11-21T20:37:03.591Z,17.97
2018-11-21T20:39:46.932Z,19.03
2018-11-21T20:42:23.400Z,21.23
2018-11-21T20:45:03.703Z,20.97
2018-11-21T20:47:44.061Z,19.20
2018-11-21T20:50:23.811Z,19.07
2018-11-21T20:53:03.577Z,20.10
2018-11-21T20:55:43.630Z,20.40
2018-11-21T20:58:23.285Z,40.30
2018-11-21T21:00:51.057Z,31.60
2018-11-21T21:03:18.694Z,27.33
2018-11-21T21:05:46.050Z,25.23
2018-11-21T21:08:13.287Z,20.77
2018-11-21T21:10:44.130Z,22.00
2018-11-21T21:13:12.466Z,19.10
2018-11-21T21:15:39.733Z,22.00
2018-11-21T21:18:07.390Z,21.10
2018-11-21T21:20:35.134Z,22.47
2018-11-21T21:23:02.532Z,20.80
2018-11-21T21:25:30.571Z,22.63
2018-11-21T21:27:58.156Z,20.10
2018-11-21T21:30:32.331Z,20.27
2018-11-21T21:33:12.588Z,20.97
2018-11-21T21:35:52.389Z,18.87
2018-11-21T21:38:32.321Z,22.33
2018-11-21T21:41:12.334Z,18.73
2018-11-21T21:43:52.216Z,21.83
2018-11-21T21:46:32.145Z,23.30
2018-11-21T21:49:12.666Z,39.73
2018-11-21T21:51:52.452Z,31.07
2018-11-21T21:54:32.076Z,27.50
2018-11-21T21:57:11.781Z,27.60
2018-11-21T21:59:51.492Z,27.40
2018-11-21T22:02:31.238Z,26.87
2018-11-21T22:05:11.317Z,21.70
2018-11-21T22:07:50.819Z,19.20
2018-11-21T22:10:30.861Z,20.70
2018-11-21T22:13:10.843Z,18.57
2018-11-21T22:15:51.016Z,21.10
2018-11-21T22:18:30.843Z,20.37
2018-11-21T22:21:10.808Z,24.03
2018-11-21T22:23:50.769Z,20.30
2018-11-21T22:26:30.623Z,19.67
2018-11-21T22:28:57.677Z,20.37
2018-11-21T22:31:44.446Z,19.33
2018-11-21T22:34:24.614Z,21.20
2018-11-21T22:37:03.875Z,16.80
2018-11-21T22:39:43.852Z,19.90
2018-11-21T22:42:24.148Z,19.40
2018-11-21T22:45:03.948Z,20.00
2018-11-21T22:47:43.919Z,19.17
2018-11-21T22:50:24.674Z,18.33
2018-11-21T22:53:04.669Z,18.13
2018-11-21T22:55:44.529Z,18.33
2018-11-21T22:58:24.446Z,15.70
2018-11-21T23:01:04.193Z,17.10
2018-11-21T23:03:44.126Z,13.13
2018-11-21T23:06:24.400Z,15.70
2018-11-21T23:09:04.010Z,14.27
2018-11-21T23:11:43.928Z,14.30
2018-11-21T23:14:23.464Z,16.50
2018-11-21T23:17:03.779Z,13.47
2018-11-21T23:19:43.368Z,14.10
2018-11-21T23:22:23.325Z,15.00
2018-11-21T23:25:03.035Z,13.80
2018-11-21T23:27:43.734Z,16.20
2018-11-21T23:30:23.666Z,16.20
2018-11-21T23:33:03.360Z,14.27
2018-11-21T23:35:43.304Z,12.80
2018-11-21T23:38:23.331Z,11.93
2018-11-21T23:41:03.191Z,13.93
2018-11-21T23:43:43.206Z,15.60
2018-11-21T23:46:23.175Z,13.93
2018-11-21T23:49:02.803Z,15.10
2018-11-21T23:51:42.763Z,12.27
2018-11-21T23:54:22.810Z,13.53
2018-11-21T23:57:15.978Z,14.87
2018-11-21T23:59:42.712Z,13.10
